Time;durP1;ratioP1;P1;durP2;ratioP2;P2;SDS_P1;SDS_P2;PMS_P1;PMS_P2;Temp;Humidity;BMP_temperature;BMP_pressure;BME280_temperature;BME280_humidity;BME280_pressure;Samples;Min_cycle;Max_cycle;Signal;HPM_P1;HPM_P2
2022/07/17 00:01:14;;;;;;;6.70;4.57;;;;;;;25.01;nan;-24510.56;4979813;28;20267;-59
2022/07/17 00:03:39;;;;;;;6.00;4.72;;;;;;;24.77;nan;-24503.94;4978541;28;20192;-58
2022/07/17 00:06:05;;;;;;;5.63;4.60;;;;;;;24.33;nan;-24491.81;4976205;28;20185;-59
2022/07/17 00:08:31;;;;;;;6.07;4.45;;;;;;;24.76;nan;-24503.66;4978922;28;20193;-59
2022/07/17 00:10:59;;;;;;;6.90;4.90;;;;;;;24.44;nan;-24494.97;4977734;28;20593;-58
2022/07/17 00:13:25;;;;;;;6.80;4.97;;;;;;;24.70;nan;-24501.88;4979619;28;20612;-60
2022/07/17 00:15:51;;;;;;;6.53;4.65;;;;;;;24.67;nan;-24501.19;4977235;28;20189;-59
2022/07/17 00:18:17;;;;;;;5.97;4.53;;;;;;;24.64;nan;-24500.50;4977643;28;20178;-58
2022/07/17 00:20:43;;;;;;;8.43;5.03;;;;;;;24.60;nan;-24499.38;4977866;28;20676;-57
2022/07/17 00:23:09;;;;;;;6.20;4.50;;;;;;;24.28;nan;-24490.56;4978545;28;20655;-60
2022/07/17 00:25:35;;;;;;;8.65;4.90;;;;;;;24.42;nan;-24494.44;4978604;28;20287;-59
2022/07/17 00:28:01;;;;;;;6.20;4.60;;;;;;;24.32;nan;-24491.53;4977751;28;20173;-58
2022/07/17 00:30:27;;;;;;;6.90;4.85;;;;;;;23.00;nan;-24455.50;4977504;28;20263;-58
2022/07/17 00:32:53;;;;;;;6.30;4.90;;;;;;;23.97;nan;-24482.16;4977782;28;20300;-59
2022/07/17 00:35:18;;;;;;;7.30;5.32;;;;;;;24.19;nan;-24488.09;4979579;28;20272;-58
2022/07/17 00:37:46;;;;;;;6.55;5.03;;;;;;;24.16;nan;-24487.41;4977244;28;20232;-59
2022/07/17 00:40:16;;;;;;;8.70;5.30;;;;;;;24.17;nan;-24487.69;4979156;28;20196;-57
2022/07/17 00:42:42;;;;;;;8.02;5.30;;;;;;;24.08;nan;-24485.06;4973311;28;20192;-59
2022/07/17 00:45:09;;;;;;;8.10;5.13;;;;;;;24.02;nan;-24483.53;4978037;28;20205;-60
2022/07/17 00:47:53;;;;;;;6.68;5.38;;;;;;;24.33;nan;-24491.94;4976319;28;20185;-57
2022/07/17 00:50:24;;;;;;;7.97;5.30;;;;;;;24.25;nan;-24489.59;4982053;28;20188;-59
2022/07/17 00:52:50;;;;;;;6.47;5.07;;;;;;;24.47;nan;-24495.66;4977133;28;20185;-58
2022/07/17 00:55:17;;;;;;;5.63;4.45;;;;;;;24.39;nan;-24493.59;4979602;28;20197;-59
2022/07/17 00:57:46;;;;;;;7.57;5.18;;;;;;;24.52;nan;-24497.03;4977348;28;20184;-59
2022/07/17 01:00:12;;;;;;;6.82;4.63;;;;;;;24.39;nan;-24493.59;4975107;28;20182;-59
2022/07/17 01:02:38;;;;;;;7.22;5.20;;;;;;;24.30;nan;-24490.97;4977698;28;20330;-59
2022/07/17 01:05:05;;;;;;;7.85;5.30;;;;;;;24.01;nan;-24483.25;4981510;28;20212;-57
2022/07/17 01:07:30;;;;;;;7.32;5.00;;;;;;;23.99;nan;-24482.72;4982755;28;20551;-59
2022/07/17 01:09:56;;;;;;;7.78;5.38;;;;;;;23.98;nan;-24482.44;4979222;28;20189;-60
2022/07/17 01:12:23;;;;;;;7.50;5.30;;;;;;;24.08;nan;-24485.06;4980713;28;20177;-55
2022/07/17 01:14:49;;;;;;;7.80;5.07;;;;;;;24.00;nan;-24482.84;4980027;28;20825;-57
2022/07/17 01:17:16;;;;;;;5.70;4.88;;;;;;;23.67;nan;-24473.88;4983931;28;20177;-57
2022/07/17 01:19:41;;;;;;;5.57;4.53;;;;;;;23.98;nan;-24482.44;4978150;28;20199;-58
2022/07/17 01:22:07;;;;;;;6.95;5.35;;;;;;;23.95;nan;-24481.47;4993947;28;20648;-57
2022/07/17 01:24:32;;;;;;;6.95;5.35;;;;;;;23.98;nan;-24482.28;4979597;28;20386;-57
2022/07/17 01:26:58;;;;;;;5.88;4.80;;;;;;;24.09;nan;-24485.31;4980641;28;20276;-58
2022/07/17 01:29:24;;;;;;;7.50;4.95;;;;;;;23.96;nan;-24481.88;4982241;28;20272;-58
2022/07/17 01:31:49;;;;;;;7.30;5.65;;;;;;;24.04;nan;-24483.94;4980108;28;20678;-61
2022/07/17 01:34:15;;;;;;;6.70;5.07;;;;;;;23.97;nan;-24482.16;4984382;28;20173;-56
2022/07/17 01:36:41;;;;;;;6.95;5.60;;;;;;;23.65;nan;-24473.47;4980013;28;20315;-57
2022/07/17 01:39:07;;;;;;;7.32;5.32;;;;;;;23.59;nan;-24471.81;4978591;28;20185;-58
2022/07/17 01:41:32;;;;;;;7.28;5.28;;;;;;;23.60;nan;-24472.06;4980648;28;20246;-59
2022/07/17 01:43:58;;;;;;;8.80;5.63;;;;;;;23.76;nan;-24476.50;4980209;28;20177;-57
2022/07/17 01:46:24;;;;;;;8.20;5.72;;;;;;;23.48;nan;-24468.63;4982281;28;20188;-59
2022/07/17 01:48:50;;;;;;;7.97;5.70;;;;;;;23.57;nan;-24471.25;4980020;28;20185;-58
2022/07/17 01:51:16;;;;;;;6.90;5.47;;;;;;;23.45;nan;-24467.94;4984711;28;20647;-59
2022/07/17 01:53:41;;;;;;;9.52;5.97;;;;;;;23.42;nan;-24467.09;4980397;28;20605;-58
2022/07/17 01:56:07;;;;;;;7.85;5.93;;;;;;;23.10;nan;-24458.25;4980901;28;20646;-56
2022/07/17 01:58:33;;;;;;;9.30;5.68;;;;;;;23.26;nan;-24462.69;4979287;28;20176;-57
2022/07/17 02:00:59;;;;;;;7.47;5.45;;;;;;;23.01;nan;-24455.91;4979854;28;20622;-58
2022/07/17 02:03:24;;;;;;;8.23;5.53;;;;;;;23.09;nan;-24458.13;4982040;28;20220;-56
2022/07/17 02:05:50;;;;;;;7.88;5.80;;;;;;;22.76;nan;-24449.16;4979626;28;20209;-57
2022/07/17 02:08:16;;;;;;;9.05;6.03;;;;;;;22.89;nan;-24452.59;4984200;28;20244;-55
2022/07/17 02:10:41;;;;;;;7.90;5.78;;;;;;;23.02;nan;-24456.06;4980190;28;20244;-57
2022/07/17 02:13:06;;;;;;;9.55;6.07;;;;;;;22.87;nan;-24452.19;4980586;28;20247;-60
2022/07/17 02:15:32;;;;;;;8.63;6.03;;;;;;;22.97;nan;-24454.81;4980541;28;20263;-58
2022/07/17 02:17:57;;;;;;;10.75;6.25;;;;;;;22.63;nan;-24445.53;4979803;28;20228;-57
2022/07/17 02:20:24;;;;;;;8.25;5.40;;;;;;;22.84;nan;-24451.22;4981365;28;20238;-57
2022/07/17 02:22:49;;;;;;;9.13;6.03;;;;;;;22.62;nan;-24445.25;4979494;28;20276;-59
2022/07/17 02:25:15;;;;;;;7.82;5.78;;;;;;;22.58;nan;-24444.16;4981967;28;20316;-57
2022/07/17 02:27:41;;;;;;;7.97;5.38;;;;;;;22.55;nan;-24443.34;4979851;28;20177;-57
2022/07/17 02:30:15;;;;;;;8.73;5.72;;;;;;;22.61;nan;-24444.84;4980146;28;20191;-56
2022/07/17 02:32:42;;;;;;;9.45;5.57;;;;;;;22.94;nan;-24453.97;4981225;28;20583;-57
2022/07/17 02:35:09;;;;;;;8.93;5.95;;;;;;;22.68;nan;-24446.94;4979431;28;20275;-59
2022/07/17 02:37:34;;;;;;;6.93;5.22;;;;;;;22.66;nan;-24446.25;4980485;28;20275;-59
2022/07/17 02:40:00;;;;;;;10.18;6.10;;;;;;;22.90;nan;-24452.88;4979223;28;20181;-57
2022/07/17 02:42:27;;;;;;;8.30;5.57;;;;;;;23.01;nan;-24455.78;4981171;28;20282;-58
2022/07/17 02:44:53;;;;;;;10.48;5.75;;;;;;;20.23;nan;-24379.84;4978715;28;20598;-59
2022/07/17 02:47:27;;;;;;;7.88;5.65;;;;;;;22.97;nan;-24454.81;4979993;28;20173;-58
2022/07/17 02:49:53;;;;;;;8.23;6.05;;;;;;;22.69;nan;-24447.19;4979127;28;20216;-58
2022/07/17 02:52:19;;;;;;;9.48;6.15;;;;;;;22.73;nan;-24448.31;4977669;28;20196;-56
2022/07/17 02:54:44;;;;;;;9.15;5.75;;;;;;;22.69;nan;-24447.19;4982776;28;20182;-59
2022/07/17 02:57:10;;;;;;;9.93;5.70;;;;;;;22.55;nan;-24443.34;4980100;28;20181;-57
2022/07/17 02:59:36;;;;;;;10.90;5.78;;;;;;;22.28;nan;-24436.00;4980025;28;20177;-59
2022/07/17 03:02:02;;;;;;;9.98;6.13;;;;;;;22.45;nan;-24440.56;4979247;28;20196;-58
2022/07/17 03:04:27;;;;;;;9.85;6.43;;;;;;;22.47;nan;-24441.25;4982850;28;20201;-57
2022/07/17 03:06:53;;;;;;;9.15;5.88;;;;;;;22.47;nan;-24441.13;4978845;28;20573;-59
2022/07/17 03:09:18;;;;;;;8.85;6.35;;;;;;;22.37;nan;-24438.34;4980894;28;20174;-55
2022/07/17 03:11:44;;;;;;;8.32;5.70;;;;;;;22.66;nan;-24446.38;4978788;28;20212;-56
2022/07/17 03:14:09;;;;;;;12.07;6.20;;;;;;;22.77;nan;-24449.41;4979435;28;20189;-58
2022/07/17 03:16:35;;;;;;;9.13;5.93;;;;;;;22.84;nan;-24451.22;4979937;28;20559;-59
2022/07/17 03:19:00;;;;;;;7.32;5.40;;;;;;;23.16;nan;-24460.06;4978636;28;20185;-60
2022/07/17 03:21:26;;;;;;;8.70;5.85;;;;;;;23.90;nan;-24480.09;4980786;28;20185;-57
2022/07/17 03:23:51;;;;;;;9.50;5.93;;;;;;;24.16;nan;-24487.41;4978464;28;20189;-58
2022/07/17 03:26:17;;;;;;;10.10;5.95;;;;;;;24.46;nan;-24495.53;4980220;28;20177;-60
2022/07/17 03:28:42;;;;;;;9.65;5.78;;;;;;;25.01;nan;-24510.41;4975007;28;20181;-57
2022/07/17 03:31:07;;;;;;;7.25;5.55;;;;;;;25.65;nan;-24527.88;4979410;28;20232;-57
2022/07/17 03:33:33;;;;;;;7.88;5.53;;;;;;;25.85;nan;-24533.38;4979748;28;20185;-58
2022/07/17 03:35:59;;;;;;;7.75;5.70;;;;;;;25.94;nan;-24535.72;4978556;28;20193;-55
2022/07/17 03:38:24;;;;;;;8.65;5.80;;;;;;;26.32;nan;-24546.16;4982134;28;20688;-58
2022/07/17 03:40:50;;;;;;;7.97;5.45;;;;;;;27.08;nan;-24566.75;4977728;28;20200;-57
2022/07/17 03:43:15;;;;;;;7.20;5.30;;;;;;;27.61;nan;-24581.16;4979055;28;20185;-59
2022/07/17 03:45:41;;;;;;;6.43;5.10;;;;;;;27.47;nan;-24577.31;4975814;28;20512;-57
2022/07/17 03:48:08;;;;;;;5.82;4.60;;;;;;;27.61;nan;-24581.00;4978925;28;20192;-58
2022/07/17 03:50:33;;;;;;;8.85;5.97;;;;;;;28.77;nan;-24612.50;4979271;28;20188;-59
2022/07/17 03:52:59;;;;;;;6.68;5.03;;;;;;;29.83;nan;-24641.03;4980703;28;20184;-57
2022/07/17 03:55:24;;;;;;;7.30;5.25;;;;;;;29.14;nan;-24622.34;4980178;28;20177;-60
2022/07/17 03:57:50;;;;;;;7.93;5.47;;;;;;;29.29;nan;-24626.56;4977754;28;20543;-58
2022/07/17 04:00:17;;;;;;;8.45;5.28;;;;;;;29.51;nan;-24632.31;4981848;28;20185;-58
2022/07/17 04:02:42;;;;;;;6.53;5.20;;;;;;;30.54;nan;-24660.13;4978104;28;20189;-56
2022/07/17 04:05:10;;;;;;;5.95;4.65;;;;;;;30.43;nan;-24657.25;4978503;28;20228;-58
2022/07/17 04:07:39;;;;;;;7.68;4.90;;;;;;;31.46;nan;-24685.03;4976826;28;20560;-57
2022/07/17 04:10:06;;;;;;;6.68;5.13;;;;;;;32.28;nan;-24706.91;4977645;28;20181;-57
2022/07/17 04:12:32;;;;;;;6.68;4.60;;;;;;;31.99;nan;-24699.31;4977585;28;20185;-58
2022/07/17 04:14:58;;;;;;;5.72;4.22;;;;;;;32.46;nan;-24711.81;4977874;28;20703;-58
2022/07/17 04:17:24;;;;;;;6.43;4.88;;;;;;;33.25;nan;-24733.09;4979785;28;20185;-57
2022/07/17 04:19:50;;;;;;;5.38;4.03;;;;;;;33.25;nan;-24733.09;4977672;28;20188;-59
2022/07/17 04:22:16;;;;;;;6.22;4.38;;;;;;;33.46;nan;-24738.50;4981602;28;20264;-56
2022/07/17 04:24:42;;;;;;;6.10;4.22;;;;;;;33.88;nan;-24749.88;4977631;28;20244;-58
2022/07/17 04:27:08;;;;;;;6.03;4.53;;;;;;;34.33;nan;-24761.78;4975341;28;20227;-56
2022/07/17 04:29:34;;;;;;;6.30;4.15;;;;;;;34.99;nan;-24779.47;4977673;28;20608;-59
2022/07/17 04:31:59;;;;;;;4.75;3.92;;;;;;;34.65;nan;-24770.41;4977711;28;20255;-60
2022/07/17 04:34:25;;;;;;;5.82;3.92;;;;;;;34.46;nan;-24765.28;4979765;28;20172;-58
2022/07/17 04:36:51;;;;;;;6.10;3.95;;;;;;;33.47;nan;-24738.78;4977426;28;20228;-58
2022/07/17 04:39:16;;;;;;;4.03;3.42;;;;;;;32.57;nan;-24714.78;4976693;28;20181;-57
2022/07/17 04:41:42;;;;;;;4.53;3.72;;;;;;;32.94;nan;-24724.69;4975917;28;20180;-57
2022/07/17 04:44:07;;;;;;;4.45;3.50;;;;;;;33.15;nan;-24730.25;4975691;28;20656;-58
2022/07/17 04:46:33;;;;;;;8.02;3.60;;;;;;;32.61;nan;-24715.72;4978241;28;20685;-60
2022/07/17 04:48:58;;;;;;;4.15;3.70;;;;;;;32.82;nan;-24721.44;4977371;28;20703;-57
2022/07/17 04:51:24;;;;;;;5.50;3.60;;;;;;;32.52;nan;-24713.28;4979004;28;20184;-57
2022/07/17 04:53:49;;;;;;;4.47;3.42;;;;;;;32.88;nan;-24723.06;4976593;28;20196;-59
2022/07/17 04:56:15;;;;;;;5.18;3.70;;;;;;;32.06;nan;-24700.94;4979265;28;20204;-58
2022/07/17 04:58:41;;;;;;;5.47;3.50;;;;;;;31.27;nan;-24679.88;4972850;28;20561;-58
2022/07/17 05:01:06;;;;;;;3.85;3.17;;;;;;;30.98;nan;-24672.09;4976985;28;20195;-58
2022/07/17 05:03:32;;;;;;;4.57;3.38;;;;;;;30.06;nan;-24647.19;4976968;28;20235;-58
2022/07/17 05:05:57;;;;;;;5.07;3.22;;;;;;;30.23;nan;-24651.94;5008560;28;20208;-58
2022/07/17 05:08:23;;;;;;;8.15;3.42;;;;;;;29.61;nan;-24635.19;4978645;28;20188;-59
2022/07/17 05:10:48;;;;;;;4.18;3.25;;;;;;;29.89;nan;-24642.53;4976715;28;20263;-58
2022/07/17 05:13:14;;;;;;;5.72;3.40;;;;;;;29.45;nan;-24630.81;4977469;28;20610;-57
2022/07/17 05:15:39;;;;;;;3.50;2.75;;;;;;;29.62;nan;-24635.44;4976154;28;20181;-57
2022/07/17 05:18:05;;;;;;;3.85;2.90;;;;;;;29.17;nan;-24623.28;4975341;28;20260;-57
2022/07/17 05:20:30;;;;;;;3.28;2.72;;;;;;;28.94;nan;-24617.16;4976396;28;20268;-56
2022/07/17 05:22:56;;;;;;;4.13;2.95;;;;;;;28.69;nan;-24610.31;4976021;28;20176;-61
2022/07/17 05:25:22;;;;;;;4.03;3.00;;;;;;;28.88;nan;-24615.38;4974935;28;20669;-57
2022/07/17 05:27:47;;;;;;;4.15;3.10;;;;;;;29.38;nan;-24628.91;4975727;28;20728;-55
2022/07/17 05:30:13;;;;;;;3.03;2.50;;;;;;;29.48;nan;-24631.50;4975827;28;20595;-58
2022/07/17 05:32:38;;;;;;;4.78;2.83;;;;;;;29.40;nan;-24629.44;4976270;28;20196;-60
2022/07/17 05:35:05;;;;;;;3.38;2.90;;;;;;;29.27;nan;-24625.88;4974501;28;20227;-59
2022/07/17 05:37:30;;;;;;;2.75;2.40;;;;;;;29.04;nan;-24619.59;4976269;28;20347;-61
2022/07/17 05:39:56;;;;;;;3.72;2.80;;;;;;;28.88;nan;-24615.50;4974633;28;20203;-59
2022/07/17 05:42:21;;;;;;;5.45;3.08;;;;;;;29.07;nan;-24620.44;4975073;28;20609;-60
2022/07/17 05:44:47;;;;;;;4.03;2.90;;;;;;;28.71;nan;-24610.72;4974540;28;20209;-58
2022/07/17 05:47:12;;;;;;;2.97;2.50;;;;;;;28.66;nan;-24609.34;4975532;28;20189;-57
2022/07/17 05:49:38;;;;;;;7.00;3.05;;;;;;;28.65;nan;-24609.06;4976097;28;20177;-58
2022/07/17 05:52:03;;;;;;;4.80;3.25;;;;;;;28.57;nan;-24606.88;4977771;28;20584;-57
2022/07/17 05:54:29;;;;;;;3.92;2.78;;;;;;;28.62;nan;-24608.41;4979777;28;20384;-59
2022/07/17 05:56:54;;;;;;;3.15;2.58;;;;;;;28.16;nan;-24595.81;4979067;28;20251;-56
2022/07/17 05:59:20;;;;;;;3.13;2.50;;;;;;;28.40;nan;-24602.50;4979376;28;20640;-56
2022/07/17 06:01:45;;;;;;;4.63;2.90;;;;;;;28.38;nan;-24601.84;4980258;28;20177;-55
2022/07/17 06:04:11;;;;;;;4.70;2.60;;;;;;;28.47;nan;-24604.28;5011023;28;20591;-58
2022/07/17 06:06:36;;;;;;;3.63;2.65;;;;;;;28.63;nan;-24608.53;4978327;28;20641;-58
2022/07/17 06:09:02;;;;;;;3.55;2.45;;;;;;;28.38;nan;-24601.97;4975185;28;20601;-59
2022/07/17 06:11:27;;;;;;;3.78;2.63;;;;;;;28.43;nan;-24603.19;4979318;28;20181;-61
2022/07/17 06:13:53;;;;;;;4.30;2.40;;;;;;;28.58;nan;-24607.28;4978545;28;20187;-59
2022/07/17 06:16:18;;;;;;;3.60;2.70;;;;;;;28.62;nan;-24608.41;4978461;28;20209;-58
2022/07/17 06:18:43;;;;;;;4.80;2.92;;;;;;;28.57;nan;-24607.03;4979046;28;20184;-57
2022/07/17 06:21:09;;;;;;;2.72;2.38;;;;;;;28.73;nan;-24611.41;4979058;28;20189;-58
2022/07/17 06:23:35;;;;;;;3.63;2.42;;;;;;;28.57;nan;-24607.03;4979678;28;20173;-57
2022/07/17 06:26:00;;;;;;;5.38;2.58;;;;;;;28.66;nan;-24609.50;4978711;28;20259;-58
2022/07/17 06:28:26;;;;;;;2.75;2.20;;;;;;;28.78;nan;-24612.78;4978920;28;20283;-56
2022/07/17 06:30:52;;;;;;;2.50;2.20;;;;;;;28.57;nan;-24606.88;4977970;28;20265;-57
2022/07/17 06:33:17;;;;;;;4.07;2.60;;;;;;;28.45;nan;-24603.88;4978057;28;20213;-58
2022/07/17 06:35:43;;;;;;;4.75;2.33;;;;;;;28.39;nan;-24602.25;4977969;28;20185;-59
2022/07/17 06:38:10;;;;;;;2.50;2.05;;;;;;;28.25;nan;-24598.28;4977907;28;20217;-56
2022/07/17 06:40:36;;;;;;;3.28;1.98;;;;;;;28.58;nan;-24607.16;4976181;28;20176;-57
2022/07/17 06:43:01;;;;;;;2.60;2.00;;;;;;;24.11;nan;-24486.00;4977394;28;20231;-58
2022/07/17 06:45:27;;;;;;;2.50;2.00;;;;;;;29.05;nan;-24619.88;4977866;28;20735;-59
2022/07/17 06:47:52;;;;;;;3.80;2.40;;;;;;;28.96;nan;-24617.69;4975246;28;20668;-58
2022/07/17 06:50:18;;;;;;;3.25;2.35;;;;;;;29.06;nan;-24620.16;4978043;28;20267;-58
2022/07/17 06:52:43;;;;;;;2.90;2.10;;;;;;;29.01;nan;-24618.78;4977621;28;20557;-60
2022/07/17 06:55:09;;;;;;;3.53;2.20;;;;;;;29.05;nan;-24619.88;4977038;28;20546;-59
2022/07/17 06:57:34;;;;;;;3.28;2.30;;;;;;;29.08;nan;-24620.84;4976109;28;20181;-56
2022/07/17 07:00:00;;;;;;;3.55;2.30;;;;;;;29.22;nan;-24624.53;4977091;28;20676;-56
2022/07/17 07:02:25;;;;;;;3.45;2.25;;;;;;;28.87;nan;-24615.09;4977290;28;20181;-56
2022/07/17 07:04:51;;;;;;;3.10;2.22;;;;;;;29.33;nan;-24627.66;4975430;28;20300;-58
2022/07/17 07:07:16;;;;;;;2.90;2.03;;;;;;;28.93;nan;-24616.75;4976328;28;20178;-56
2022/07/17 07:09:41;;;;;;;3.90;2.47;;;;;;;28.98;nan;-24618.25;5009275;28;20232;-57
2022/07/17 07:12:07;;;;;;;3.17;2.20;;;;;;;29.32;nan;-24627.41;4977306;28;21247;-57
2022/07/17 07:14:33;;;;;;;5.28;2.10;;;;;;;29.24;nan;-24625.19;4975620;28;20274;-56
2022/07/17 07:16:58;;;;;;;2.25;1.90;;;;;;;29.37;nan;-24628.75;4976984;28;20192;-59
2022/07/17 07:19:23;;;;;;;2.40;1.90;;;;;;;29.28;nan;-24626.16;4977075;28;20549;-57
2022/07/17 07:21:49;;;;;;;2.35;1.90;;;;;;;29.31;nan;-24627.00;4976450;28;20192;-56
2022/07/17 07:24:14;;;;;;;2.45;2.00;;;;;;;29.50;nan;-24632.19;4978913;28;20207;-57
2022/07/17 07:26:40;;;;;;;2.50;2.00;;;;;;;29.59;nan;-24634.63;4976616;28;20323;-59
2022/07/17 07:29:05;;;;;;;3.03;2.20;;;;;;;29.70;nan;-24637.63;4976478;28;20180;-58
2022/07/17 07:31:31;;;;;;;3.33;2.10;;;;;;;29.53;nan;-24633.00;4975959;28;20181;-59
2022/07/17 07:33:56;;;;;;;2.60;1.98;;;;;;;29.32;nan;-24627.25;4977025;28;20771;-59
2022/07/17 07:36:22;;;;;;;2.80;2.20;;;;;;;29.29;nan;-24626.44;4977908;28;20641;-58
2022/07/17 07:38:48;;;;;;;2.20;1.95;;;;;;;29.46;nan;-24630.94;4977163;28;20185;-60
2022/07/17 07:41:13;;;;;;;2.17;1.83;;;;;;;29.61;nan;-24635.19;4976039;28;20527;-61
2022/07/17 07:43:38;;;;;;;4.15;2.30;;;;;;;29.70;nan;-24637.63;4976251;28;20185;-60
2022/07/17 07:46:04;;;;;;;2.75;2.00;;;;;;;29.72;nan;-24638.19;4976011;28;20250;-60
2022/07/17 07:48:30;;;;;;;3.40;2.00;;;;;;;29.87;nan;-24642.13;4977413;28;20177;-59
2022/07/17 07:50:55;;;;;;;2.58;1.88;;;;;;;29.90;nan;-24642.81;4977471;28;20193;-58
2022/07/17 07:53:21;;;;;;;2.60;2.00;;;;;;;29.63;nan;-24635.59;4975598;28;20199;-58
2022/07/17 07:55:47;;;;;;;2.40;2.00;;;;;;;29.95;nan;-24644.19;4974957;28;20270;-58
2022/07/17 07:58:13;;;;;;;3.25;2.20;;;;;;;29.88;nan;-24642.25;4976764;28;20216;-58
2022/07/17 08:00:40;;;;;;;3.25;2.05;;;;;;;29.76;nan;-24639.28;4976605;28;20284;-55
2022/07/17 08:03:06;;;;;;;2.47;1.98;;;;;;;29.86;nan;-24641.84;4973683;28;20759;-56
2022/07/17 08:05:32;;;;;;;4.18;1.95;;;;;;;30.04;nan;-24646.78;4974810;28;20497;-59
2022/07/17 08:07:57;;;;;;;2.90;2.10;;;;;;;30.19;nan;-24650.88;4990765;28;20256;-58
2022/07/17 08:10:23;;;;;;;3.33;2.17;;;;;;;29.69;nan;-24637.34;4974493;28;20208;-56
2022/07/17 08:12:48;;;;;;;3.17;2.40;;;;;;;30.32;nan;-24654.28;4974408;28;20230;-55
2022/07/17 08:15:16;;;;;;;4.82;2.40;;;;;;;30.39;nan;-24656.03;4975716;28;20913;-55
2022/07/17 08:17:42;;;;;;;3.72;2.33;;;;;;;30.50;nan;-24659.03;4976269;28;20183;-56
2022/07/17 08:20:08;;;;;;;6.40;2.03;;;;;;;30.52;nan;-24659.59;4974899;28;20184;-57
2022/07/17 08:22:33;;;;;;;2.85;2.17;;;;;;;30.54;nan;-24660.13;4975019;28;20176;-58
2022/07/17 08:24:59;;;;;;;2.95;2.20;;;;;;;30.60;nan;-24661.91;5008490;28;20250;-58
2022/07/17 08:27:24;;;;;;;3.90;2.60;;;;;;;30.26;nan;-24652.78;4974919;28;20589;-57
2022/07/17 08:29:50;;;;;;;2.90;2.22;;;;;;;30.49;nan;-24658.91;4974860;28;20188;-57
2022/07/17 08:32:15;;;;;;;3.08;2.30;;;;;;;30.41;nan;-24656.72;4975390;28;20176;-56
2022/07/17 08:34:41;;;;;;;3.53;1.92;;;;;;;29.95;nan;-24644.31;4976664;28;20672;-59
2022/07/17 08:37:06;;;;;;;5.20;2.67;;;;;;;30.13;nan;-24649.09;4974866;28;20318;-59
2022/07/17 08:39:32;;;;;;;3.53;2.58;;;;;;;30.68;nan;-24663.94;4975588;28;20236;-60
2022/07/17 08:41:57;;;;;;;36.17;26.38;;;;;;;30.77;nan;-24666.25;4973877;28;20648;-55
2022/07/17 08:44:23;;;;;;;4.40;3.13;;;;;;;30.94;nan;-24670.88;4976249;28;20211;-58
2022/07/17 08:46:48;;;;;;;5.95;3.40;;;;;;;30.84;nan;-24668.16;4977204;28;20180;-58
2022/07/17 08:49:20;;;;;;;4.20;2.75;;;;;;;30.51;nan;-24659.31;4974094;28;20276;-55
2022/07/17 08:51:45;;;;;;;7.65;2.88;;;;;;;30.80;nan;-24667.22;4977145;28;20251;-55
2022/07/17 08:54:11;;;;;;;3.15;1.85;;;;;;;30.88;nan;-24669.38;4975081;28;20176;-58
2022/07/17 08:56:37;;;;;;;3.55;2.08;;;;;;;30.31;nan;-24654.00;4975071;28;20185;-58
2022/07/17 08:59:02;;;;;;;8.20;5.25;;;;;;;30.58;nan;-24661.34;4978328;28;20184;-56
2022/07/17 09:01:28;;;;;;;2.40;1.90;;;;;;;30.59;nan;-24661.63;4978858;28;20188;-57
2022/07/17 09:04:11;;;;;;;2.63;1.98;;;;;;;30.76;nan;-24665.97;4976514;28;20240;-58
2022/07/17 09:06:36;;;;;;;4.00;2.40;;;;;;;30.57;nan;-24661.09;4976813;28;20184;-59
2022/07/17 09:09:10;;;;;;;2.97;2.20;;;;;;;30.80;nan;-24667.22;4977113;28;20247;-57
2022/07/17 09:11:50;;;;;;;3.08;2.20;;;;;;;31.13;nan;-24676.06;4980734;28;20195;-57
2022/07/17 09:14:16;;;;;;;2.90;2.10;;;;;;;31.02;nan;-24673.06;4978639;28;20189;-58
2022/07/17 09:16:56;;;;;;;3.95;1.85;;;;;;;30.80;nan;-24667.22;4974478;28;20180;-58
2022/07/17 09:19:26;;;;;;;2.22;1.92;;;;;;;31.13;nan;-24676.06;4985669;28;20188;-56
2022/07/17 09:22:02;;;;;;;2.85;1.90;;;;;;;31.07;nan;-24674.44;4976076;28;20727;-56
2022/07/17 09:24:50;;;;;;;2.25;1.98;;;;;;;30.93;nan;-24670.63;4980425;28;20195;-59
2022/07/17 09:27:25;;;;;;;2.83;2.00;;;;;;;31.23;nan;-24678.78;4982766;28;20181;-56
2022/07/17 09:29:52;;;;;;;2.38;1.80;;;;;;;31.18;nan;-24677.28;4980107;28;20181;-59
2022/07/17 09:32:23;;;;;;;2.40;2.15;;;;;;;31.45;nan;-24684.75;4980512;28;20189;-57
2022/07/17 09:34:50;;;;;;;2.72;2.08;;;;;;;31.51;nan;-24686.41;4980063;28;20177;-58
2022/07/17 09:37:16;;;;;;;2.40;1.90;;;;;;;31.78;nan;-24693.59;4980234;28;20283;-56
2022/07/17 09:39:42;;;;;;;3.63;2.63;;;;;;;31.90;nan;-24696.72;4980298;28;20246;-55
2022/07/17 09:42:08;;;;;;;2.58;2.10;;;;;;;31.84;nan;-24695.09;4978720;28;20679;-58
2022/07/17 09:44:34;;;;;;;2.65;1.88;;;;;;;31.34;nan;-24681.63;4979050;28;20207;-56
2022/07/17 09:47:01;;;;;;;2.33;1.77;;;;;;;31.70;nan;-24691.44;4978151;28;20562;-58
2022/07/17 09:49:28;;;;;;;1.90;1.75;;;;;;;31.54;nan;-24687.22;4979718;28;20185;-59
2022/07/17 09:51:54;;;;;;;3.08;2.20;;;;;;;31.59;nan;-24688.44;4978081;28;20271;-59
2022/07/17 09:54:22;;;;;;;2.70;2.00;;;;;;;31.76;nan;-24692.94;4981056;28;20169;-62
2022/07/17 09:56:50;;;;;;;2.75;2.00;;;;;;;31.77;nan;-24693.19;4979763;28;20191;-59
2022/07/17 09:59:17;;;;;;;2.47;1.90;;;;;;;32.09;nan;-24701.88;4981908;28;20557;-55
2022/07/17 10:01:44;;;;;;;2.67;2.17;;;;;;;31.89;nan;-24696.59;4977516;28;20212;-57
2022/07/17 10:04:11;;;;;;;3.38;2.10;;;;;;;31.94;nan;-24697.81;4980680;28;20207;-58
2022/07/17 10:06:37;;;;;;;4.15;2.20;;;;;;;31.98;nan;-24698.91;4978364;28;20203;-59
2022/07/17 10:09:05;;;;;;;3.60;2.10;;;;;;;31.84;nan;-24695.22;4979189;28;20187;-59
2022/07/17 10:11:34;;;;;;;2.45;1.88;;;;;;;32.08;nan;-24701.63;4982061;28;20188;-56
2022/07/17 10:14:12;;;;;;;2.42;1.98;;;;;;;32.12;nan;-24702.72;4979931;28;20623;-58
2022/07/17 10:16:40;;;;;;;2.40;1.80;;;;;;;32.15;nan;-24703.53;4983363;28;20695;-56
2022/07/17 10:19:20;;;;;;;2.75;2.25;;;;;;;32.14;nan;-24703.13;4980085;28;20189;-57
2022/07/17 10:22:04;;;;;;;3.10;2.33;;;;;;;32.41;nan;-24710.56;4975658;28;20179;-59
2022/07/17 10:24:30;;;;;;;2.17;1.90;;;;;;;32.68;nan;-24717.78;4977754;28;20212;-57
2022/07/17 10:26:56;;;;;;;2.90;2.20;;;;;;;32.37;nan;-24709.50;4980042;28;20193;-56
2022/07/17 10:29:38;;;;;;;2.50;2.13;;;;;;;32.09;nan;-24701.88;4978323;28;20181;-57
2022/07/17 10:32:08;;;;;;;2.63;2.08;;;;;;;32.56;nan;-24714.38;4975281;28;20176;-58
2022/07/17 10:34:41;;;;;;;2.80;2.05;;;;;;;32.36;nan;-24709.22;4980736;28;20688;-56
2022/07/17 10:37:18;;;;;;;2.63;2.20;;;;;;;31.99;nan;-24699.16;4976933;28;20228;-57
2022/07/17 10:40:07;;;;;;;3.70;2.60;;;;;;;32.29;nan;-24707.19;4979578;28;20586;-56
2022/07/17 10:42:41;;;;;;;3.75;1.90;;;;;;;32.58;nan;-24714.91;4976945;28;20191;-55
2022/07/17 10:45:08;;;;;;;3.55;2.25;;;;;;;32.49;nan;-24712.47;4975346;28;20315;-56
2022/07/17 10:48:05;;;;;;;2.55;2.10;;;;;;;32.33;nan;-24708.28;4978175;28;20567;-58
2022/07/17 10:50:37;;;;;;;3.53;2.17;;;;;;;32.14;nan;-24703.25;4979222;28;20185;-59
2022/07/17 10:53:06;;;;;;;2.60;2.05;;;;;;;32.39;nan;-24709.91;4976325;28;20192;-53
2022/07/17 10:55:33;;;;;;;2.90;2.00;;;;;;;32.79;nan;-24720.75;4976667;28;20235;-57
2022/07/17 10:57:58;;;;;;;2.92;1.98;;;;;;;32.78;nan;-24720.34;4974292;28;20191;-55
2022/07/17 11:00:25;;;;;;;2.47;2.13;;;;;;;33.35;nan;-24735.53;4974481;28;20259;-55
2022/07/17 11:02:50;;;;;;;2.55;1.80;;;;;;;33.47;nan;-24738.91;4978656;28;20593;-57
2022/07/17 11:05:17;;;;;;;3.13;2.00;;;;;;;33.12;nan;-24729.44;4989196;28;20216;-56
2022/07/17 11:07:58;;;;;;;2.75;2.03;;;;;;;32.92;nan;-24724.16;4978686;28;20248;-56
2022/07/17 11:10:26;;;;;;;2.90;2.20;;;;;;;32.67;nan;-24717.50;4978003;28;20183;-55
2022/07/17 11:13:07;;;;;;;2.45;2.05;;;;;;;32.84;nan;-24721.97;4976322;28;20640;-57
2022/07/17 11:15:45;;;;;;;2.33;1.67;;;;;;;32.91;nan;-24723.88;4979607;28;20630;-56
2022/07/17 11:18:13;;;;;;;3.08;2.05;;;;;;;33.04;nan;-24727.25;4974241;28;20189;-57
2022/07/17 11:20:57;;;;;;;2.38;1.85;;;;;;;32.96;nan;-24725.22;4974540;28;20271;-56
2022/07/17 11:23:25;;;;;;;3.25;2.10;;;;;;;33.39;nan;-24736.75;4957514;28;20287;-57
2022/07/17 11:26:00;;;;;;;3.30;2.17;;;;;;;33.69;nan;-24744.75;4973513;28;20223;-59
2022/07/17 11:28:30;;;;;;;3.80;2.03;;;;;;;33.43;nan;-24737.69;4975811;28;20172;-56
2022/07/17 11:30:56;;;;;;;2.65;1.98;;;;;;;33.28;nan;-24733.75;4975978;28;20677;-60
2022/07/17 11:33:21;;;;;;;2.75;1.90;;;;;;;33.03;nan;-24727.13;4980537;28;20264;-59
2022/07/17 11:35:47;;;;;;;3.53;1.88;;;;;;;33.12;nan;-24729.44;4978033;28;20180;-57
2022/07/17 11:38:12;;;;;;;2.10;1.70;;;;;;;32.78;nan;-24720.34;4979534;28;20278;-58
2022/07/17 11:40:50;;;;;;;2.00;1.70;;;;;;;32.74;nan;-24719.41;4976207;28;20323;-57